createdAt,value
2022-12-15T00:00:18.661Z,-4.40
2022-12-15T00:03:04.385Z,-4.40
2022-12-15T00:05:50.042Z,-4.50
2022-12-15T00:08:36.129Z,-4.50
2022-12-15T00:11:23.137Z,-4.50
2022-12-15T00:14:08.684Z,-4.50
2022-12-15T00:16:54.243Z,-4.60
2022-12-15T00:19:39.499Z,-4.60
2022-12-15T00:22:25.108Z,-4.60
2022-12-15T00:25:10.518Z,-4.70
2022-12-15T00:27:55.889Z,-4.70
2022-12-15T00:30:41.279Z,-4.70
2022-12-15T00:33:30.872Z,-4.70
2022-12-15T00:36:19.491Z,-4.70
2022-12-15T00:38:47.451Z,-4.70
2022-12-15T00:41:18.356Z,-4.70
2022-12-15T00:43:46.285Z,-4.70
2022-12-15T00:46:32.211Z,-4.70
2022-12-15T00:48:59.454Z,-4.80
2022-12-15T00:51:45.976Z,-4.80
2022-12-15T00:54:31.333Z,-4.90
2022-12-15T00:57:16.850Z,-4.80
2022-12-15T01:00:02.371Z,-4.80
2022-12-15T01:02:48.006Z,-4.80
2022-12-15T01:05:33.674Z,-4.90
2022-12-15T01:08:19.106Z,-4.80
2022-12-15T01:11:04.599Z,-4.80
2022-12-15T01:13:50.177Z,-4.90
2022-12-15T01:16:36.228Z,-5.00
2022-12-15T01:19:22.144Z,-4.90
2022-12-15T01:21:49.622Z,-5.00
2022-12-15T01:24:16.597Z,-4.90
2022-12-15T01:26:43.408Z,-4.90
2022-12-15T01:29:10.219Z,-5.00
2022-12-15T01:31:37.096Z,-5.00
2022-12-15T01:34:03.950Z,-4.90
2022-12-15T01:36:30.783Z,-4.90
2022-12-15T01:38:57.598Z,-4.90
2022-12-15T01:41:24.858Z,-4.90
2022-12-15T01:43:51.666Z,-4.90
2022-12-15T01:46:23.127Z,-4.90
2022-12-15T01:49:02.821Z,-4.90
2022-12-15T01:51:36.498Z,-4.90
2022-12-15T01:54:14.857Z,-4.90
2022-12-15T01:56:47.754Z,-4.90
2022-12-15T01:59:21.474Z,-4.90
2022-12-15T02:01:49.571Z,-5.00
2022-12-15T02:04:21.535Z,-5.00
2022-12-15T02:06:48.456Z,-5.00
2022-12-15T02:09:17.362Z,-4.90
2022-12-15T02:11:49.823Z,-4.80
2022-12-15T02:15:03.754Z,-4.80
2022-12-15T02:18:04.227Z,-4.80
2022-12-15T02:20:40.659Z,-5.00
2022-12-15T02:23:47.459Z,-5.00
2022-12-15T02:26:45.098Z,-5.10
2022-12-15T02:29:47.064Z,-5.00
2022-12-15T02:32:20.510Z,-5.00
2022-12-15T02:35:05.692Z,-5.00
2022-12-15T02:37:38.110Z,-5.10
2022-12-15T02:40:09.181Z,-5.10
2022-12-15T02:42:45.013Z,-5.10
2022-12-15T02:45:16.765Z,-5.10
2022-12-15T02:48:23.848Z,-5.20
2022-12-15T02:51:24.570Z,-5.20
2022-12-15T02:54:08.233Z,-5.10
2022-12-15T02:57:15.893Z,-5.20
2022-12-15T03:00:04.050Z,-5.10
2022-12-15T03:02:34.993Z,-5.10
2022-12-15T03:05:02.309Z,-5.10
2022-12-15T03:07:29.186Z,-5.00
2022-12-15T03:09:59.702Z,-5.00
2022-12-15T03:12:27.472Z,-5.10
2022-12-15T03:14:54.330Z,-5.10
2022-12-15T03:17:21.130Z,-5.10
2022-12-15T03:19:49.815Z,-5.20
2022-12-15T03:22:16.863Z,-5.10
2022-12-15T03:24:43.682Z,-5.00
2022-12-15T03:27:10.690Z,-4.90
2022-12-15T03:29:37.716Z,-4.90
2022-12-15T03:32:05.068Z,-4.90
2022-12-15T03:34:31.972Z,-4.90
2022-12-15T03:36:59.164Z,-4.90
2022-12-15T03:39:26.903Z,-4.90
2022-12-15T03:41:53.674Z,-4.90
2022-12-15T03:44:21.096Z,-4.90
2022-12-15T03:46:48.025Z,-4.90
2022-12-15T03:49:14.769Z,-4.80
2022-12-15T03:51:41.555Z,-4.90
2022-12-15T03:54:08.859Z,-4.90
2022-12-15T03:56:35.687Z,-4.80
2022-12-15T03:59:03.151Z,-4.90
2022-12-15T04:01:35.748Z,-4.80
2022-12-15T04:04:05.012Z,-4.90
2022-12-15T04:06:32.350Z,-5.00
2022-12-15T04:08:59.120Z,-5.00
2022-12-15T04:11:26.110Z,-5.00
2022-12-15T04:13:52.981Z,-5.00
2022-12-15T04:16:20.524Z,-5.10
2022-12-15T04:19:08.131Z,-5.10
2022-12-15T04:21:35.027Z,-5.10
2022-12-15T04:24:20.196Z,-5.10
2022-12-15T04:27:05.657Z,-5.00
2022-12-15T04:29:51.097Z,-5.00
2022-12-15T04:32:36.759Z,-4.90
2022-12-15T04:35:22.215Z,-4.90
2022-12-15T04:38:07.716Z,-5.00
2022-12-15T04:40:53.832Z,-5.10
2022-12-15T04:43:39.202Z,-5.00
2022-12-15T04:46:24.894Z,-5.00
2022-12-15T04:49:10.291Z,-5.00
2022-12-15T04:51:55.690Z,-5.00
2022-12-15T04:54:41.090Z,-5.00
2022-12-15T04:57:26.241Z,-5.00
2022-12-15T05:00:11.745Z,-5.10
2022-12-15T05:02:57.700Z,-5.10
2022-12-15T05:05:43.182Z,-5.00
2022-12-15T05:08:28.695Z,-5.10
2022-12-15T05:11:14.315Z,-4.90
2022-12-15T05:13:59.462Z,-5.10
2022-12-15T05:16:44.827Z,-5.10
2022-12-15T05:19:30.134Z,-5.10
2022-12-15T05:22:15.502Z,-5.10
2022-12-15T05:25:00.937Z,-5.20
2022-12-15T05:27:46.467Z,-5.20
2022-12-15T05:30:31.842Z,-5.10
2022-12-15T05:33:03.986Z,-5.10
2022-12-15T05:35:31.179Z,-5.10
2022-12-15T05:37:57.973Z,-5.10
2022-12-15T05:40:24.787Z,-5.10
2022-12-15T05:42:51.534Z,-5.10
2022-12-15T05:45:18.357Z,-5.10
2022-12-15T05:47:52.053Z,-5.20
2022-12-15T05:50:19.826Z,-5.20
2022-12-15T05:52:49.530Z,-5.20
2022-12-15T05:55:18.850Z,-5.20
2022-12-15T05:57:52.663Z,-5.30
2022-12-15T06:00:20.638Z,-5.30
2022-12-15T06:02:47.473Z,-5.30
2022-12-15T06:05:17.005Z,-5.20
2022-12-15T06:07:43.810Z,-5.20
2022-12-15T06:10:11.405Z,-5.10
2022-12-15T06:12:38.349Z,-5.20
2022-12-15T06:15:06.277Z,-5.20
2022-12-15T06:17:33.202Z,-5.20
2022-12-15T06:20:00.243Z,-5.20
2022-12-15T06:22:29.684Z,-5.20
2022-12-15T06:24:56.751Z,-5.20
2022-12-15T06:27:23.593Z,-5.20
2022-12-15T06:29:50.371Z,-5.30
2022-12-15T06:32:17.260Z,-5.20
2022-12-15T06:34:44.367Z,-5.20
2022-12-15T06:37:11.193Z,-5.20
2022-12-15T06:39:38.226Z,-5.30
2022-12-15T06:42:05.092Z,-5.30
2022-12-15T06:44:31.910Z,-5.30
2022-12-15T06:46:58.699Z,-5.30
2022-12-15T06:49:25.502Z,-5.30
2022-12-15T06:51:52.252Z,-5.20
2022-12-15T06:54:19.064Z,-5.20
2022-12-15T06:56:45.871Z,-5.20
2022-12-15T06:59:16.937Z,-5.20
2022-12-15T07:01:44.186Z,-5.30
2022-12-15T07:04:11.508Z,-5.30
2022-12-15T07:06:39.883Z,-5.30
2022-12-15T07:09:13.018Z,-5.20
2022-12-15T07:11:40.415Z,-5.30
2022-12-15T07:14:07.319Z,-5.40
2022-12-15T07:16:34.202Z,-5.30
2022-12-15T07:19:01.251Z,-5.40
2022-12-15T07:21:28.180Z,-5.30
2022-12-15T07:23:56.611Z,-5.20
2022-12-15T07:26:25.087Z,-5.20
2022-12-15T07:28:53.298Z,-5.10
2022-12-15T07:31:20.389Z,-5.10
2022-12-15T07:33:48.160Z,-5.10
2022-12-15T07:36:15.535Z,-5.10
2022-12-15T07:38:42.723Z,-5.00
2022-12-15T07:41:10.185Z,-5.00
2022-12-15T07:43:38.111Z,-5.00
2022-12-15T07:46:05.832Z,-4.90
2022-12-15T07:48:33.564Z,-4.90
2022-12-15T07:51:17.174Z,-4.90
2022-12-15T07:53:46.732Z,-4.80
2022-12-15T07:56:13.966Z,-4.80
2022-12-15T07:58:41.943Z,-4.80
2022-12-15T08:01:12.817Z,-4.80
2022-12-15T08:03:40.650Z,-4.80
2022-12-15T08:06:11.984Z,-4.70
2022-12-15T08:08:40.280Z,-4.60
2022-12-15T08:11:10.150Z,-4.70
2022-12-15T08:16:26.181Z,-4.60
2022-12-15T08:18:53.706Z,-4.30
2022-12-15T08:21:20.661Z,-4.50
2022-12-15T08:23:47.939Z,-4.50
2022-12-15T08:26:17.745Z,-4.50
2022-12-15T08:28:45.950Z,-4.40
2022-12-15T08:31:20.172Z,-4.40
2022-12-15T08:33:48.074Z,-4.40
2022-12-15T08:36:19.223Z,-4.30
2022-12-15T08:38:47.166Z,-4.20
2022-12-15T08:41:32.241Z,-4.20
2022-12-15T08:44:01.281Z,-4.20
2022-12-15T08:46:33.784Z,-4.20
2022-12-15T08:49:02.571Z,-4.10
2022-12-15T08:51:32.187Z,-4.00
2022-12-15T08:54:00.987Z,-3.90
2022-12-15T08:56:29.008Z,-3.50
2022-12-15T08:58:59.434Z,-3.30
2022-12-15T09:01:28.916Z,-3.20
2022-12-15T09:03:57.314Z,-3.40
2022-12-15T09:06:33.999Z,-3.10
2022-12-15T09:09:07.278Z,-2.90
2022-12-15T09:11:34.858Z,-2.70
2022-12-15T09:14:01.733Z,-2.60
2022-12-15T09:16:28.928Z,-2.70
2022-12-15T09:18:58.709Z,-2.70
2022-12-15T09:21:28.622Z,-2.70
2022-12-15T09:24:01.337Z,-2.20
2022-12-15T09:26:31.887Z,-2.10
2022-12-15T09:28:58.994Z,-2.10
2022-12-15T09:31:29.918Z,-2.30
2022-12-15T09:33:59.178Z,-2.30
2022-12-15T09:36:28.186Z,-2.00
2022-12-15T09:38:55.283Z,-1.70
2022-12-15T09:41:29.361Z,-1.50
2022-12-15T09:44:10.274Z,-1.30
2022-12-15T09:46:57.378Z,-1.40
2022-12-15T09:49:45.141Z,-1.30
2022-12-15T09:52:22.272Z,-1.10
2022-12-15T09:54:49.421Z,-1.00
2022-12-15T09:57:25.858Z,-0.80
2022-12-15T10:00:30.967Z,-0.70
2022-12-15T10:03:23.799Z,-0.80
2022-12-15T10:06:16.518Z,-0.50
2022-12-15T10:08:59.947Z,-0.40
2022-12-15T10:11:43.932Z,-0.30
2022-12-15T10:14:42.647Z,-0.10
2022-12-15T10:17:39.444Z,0.00
2022-12-15T10:20:28.824Z,0.00
2022-12-15T10:23:02.904Z,0.00
2022-12-15T10:25:31.851Z,0.00
2022-12-15T10:28:30.418Z,-0.10
2022-12-15T10:31:12.822Z,0.10
2022-12-15T10:33:47.052Z,0.30
2022-12-15T10:36:17.050Z,0.30
2022-12-15T10:41:34.457Z,0.20
2022-12-15T10:44:02.689Z,0.40
2022-12-15T10:46:31.830Z,0.30
2022-12-15T10:49:24.135Z,0.40
2022-12-15T10:52:00.489Z,0.30
2022-12-15T10:54:45.718Z,0.20
2022-12-15T10:57:27.666Z,0.20
2022-12-15T11:00:00.521Z,0.40
2022-12-15T11:02:36.664Z,0.40
2022-12-15T11:05:17.019Z,0.40
2022-12-15T11:07:56.136Z,0.40
2022-12-15T11:10:48.838Z,0.30
2022-12-15T11:13:20.725Z,0.40
2022-12-15T11:15:55.127Z,0.40
2022-12-15T11:18:44.604Z,0.40
2022-12-15T11:21:25.229Z,0.60
2022-12-15T11:24:18.266Z,0.70
2022-12-15T11:27:01.630Z,0.80
2022-12-15T11:30:15.634Z,0.80
2022-12-15T11:32:55.617Z,0.80
2022-12-15T11:35:52.135Z,0.90
2022-12-15T11:38:52.598Z,1.00
2022-12-15T11:41:57.359Z,1.10
2022-12-15T11:45:02.421Z,1.00
2022-12-15T11:48:17.191Z,1.00
2022-12-15T11:51:05.203Z,1.10
2022-12-15T11:54:27.209Z,1.20
2022-12-15T11:57:11.486Z,1.20
2022-12-15T12:00:02.181Z,1.20
2022-12-15T12:03:30.541Z,1.40
2022-12-15T12:06:18.967Z,1.40
2022-12-15T12:09:00.981Z,1.50
2022-12-15T12:11:50.422Z,1.50
2022-12-15T12:14:41.668Z,1.60
2022-12-15T12:17:31.184Z,1.60
2022-12-15T12:20:14.520Z,1.60
2022-12-15T12:23:04.600Z,1.70
2022-12-15T12:25:43.106Z,1.70
2022-12-15T12:28:41.012Z,1.70
2022-12-15T12:31:26.345Z,1.80
2022-12-15T12:34:01.454Z,1.90
2022-12-15T12:36:28.333Z,2.00
2022-12-15T12:38:59.060Z,2.00
2022-12-15T12:41:49.276Z,2.10
2022-12-15T12:44:22.510Z,2.20
2022-12-15T12:46:55.622Z,2.20
2022-12-15T12:49:42.732Z,2.10
2022-12-15T12:52:37.946Z,2.20
2022-12-15T12:55:14.901Z,2.30
2022-12-15T12:57:43.695Z,2.20
2022-12-15T13:00:28.450Z,2.30
2022-12-15T13:03:21.020Z,2.30
2022-12-15T13:05:50.905Z,2.20
2022-12-15T13:08:52.548Z,2.00
2022-12-15T13:11:49.084Z,2.10
2022-12-15T13:14:26.418Z,2.20
2022-12-15T13:17:43.817Z,2.10
2022-12-15T13:20:24.519Z,2.10
2022-12-15T13:22:52.335Z,2.10
2022-12-15T13:25:41.837Z,2.10
2022-12-15T13:28:40.164Z,2.10
2022-12-15T13:31:20.631Z,2.10
2022-12-15T13:33:50.606Z,2.10
2022-12-15T13:36:39.278Z,2.10
2022-12-15T13:39:12.427Z,2.10
2022-12-15T13:45:03.910Z,2.10
2022-12-15T13:47:31.083Z,2.20
2022-12-15T13:50:15.162Z,2.20
2022-12-15T13:55:40.041Z,2.30
2022-12-15T13:58:14.818Z,2.30
2022-12-15T14:00:56.993Z,2.30
2022-12-15T14:03:25.299Z,2.40
2022-12-15T14:05:59.316Z,2.40
2022-12-15T14:08:30.827Z,2.40
2022-12-15T14:11:16.491Z,2.50
2022-12-15T14:13:54.102Z,2.50
2022-12-15T14:16:23.249Z,2.50
2022-12-15T14:19:16.081Z,2.50
2022-12-15T14:21:55.520Z,2.50
2022-12-15T14:24:39.639Z,2.50
2022-12-15T14:27:07.485Z,2.50
2022-12-15T14:29:34.644Z,2.50
2022-12-15T14:32:02.243Z,2.40
2022-12-15T14:37:34.926Z,2.30
2022-12-15T14:40:02.015Z,2.30
2022-12-15T14:42:31.016Z,2.30
2022-12-15T14:44:58.563Z,2.30
2022-12-15T14:47:30.681Z,2.20
2022-12-15T14:50:01.158Z,2.30
2022-12-15T14:52:36.302Z,2.20
2022-12-15T14:55:32.983Z,2.20
2022-12-15T14:58:00.560Z,2.20
2022-12-15T15:00:35.637Z,2.20
2022-12-15T15:03:04.488Z,0.30
2022-12-15T15:03:18.166Z,2.10
2022-12-15T15:05:51.719Z,2.00
2022-12-15T15:08:41.485Z,1.90
2022-12-15T15:11:29.454Z,1.90
2022-12-15T15:14:00.618Z,1.70
2022-12-15T15:16:28.135Z,1.50
2022-12-15T15:18:57.006Z,1.40
2022-12-15T15:21:29.607Z,1.40
2022-12-15T15:24:25.717Z,1.40
2022-12-15T15:26:53.314Z,1.50
2022-12-15T15:29:41.197Z,1.50
2022-12-15T15:32:22.919Z,1.30
2022-12-15T15:34:50.253Z,1.40
2022-12-15T15:37:25.134Z,1.10
2022-12-15T15:39:55.027Z,1.10
2022-12-15T15:42:25.484Z,1.00
2022-12-15T15:44:57.555Z,0.90
2022-12-15T15:47:26.044Z,0.80
2022-12-15T15:49:55.594Z,0.70
2022-12-15T15:52:22.929Z,0.70
2022-12-15T15:54:50.865Z,0.60
2022-12-15T15:57:18.842Z,0.60
2022-12-15T15:59:46.874Z,0.60
2022-12-15T16:02:14.751Z,0.70
2022-12-15T16:04:43.449Z,0.60
2022-12-15T16:07:25.499Z,0.60
2022-12-15T16:09:54.196Z,0.70
2022-12-15T16:12:42.585Z,0.80
2022-12-15T16:15:23.006Z,0.80
2022-12-15T16:17:50.269Z,0.90
2022-12-15T16:20:20.036Z,1.00
2022-12-15T16:23:11.174Z,1.00
2022-12-15T16:25:50.056Z,1.00
2022-12-15T16:28:26.885Z,0.90
2022-12-15T16:30:55.387Z,0.90
2022-12-15T16:33:22.286Z,0.70
2022-12-15T16:35:50.619Z,0.50
2022-12-15T16:38:30.704Z,0.50
2022-12-15T16:41:06.531Z,0.40
2022-12-15T16:43:38.195Z,0.50
2022-12-15T16:46:07.366Z,0.50
2022-12-15T16:48:34.684Z,0.50
2022-12-15T16:51:02.542Z,0.50
2022-12-15T16:53:34.114Z,0.60
2022-12-15T16:56:06.504Z,0.70
2022-12-15T16:58:35.972Z,0.80
2022-12-15T17:01:03.841Z,0.70
2022-12-15T17:03:31.016Z,0.70
2022-12-15T17:06:03.842Z,0.70
2022-12-15T17:08:50.402Z,0.70
2022-12-15T17:11:22.089Z,0.70
2022-12-15T17:13:56.081Z,0.70
2022-12-15T17:16:25.785Z,0.80
2022-12-15T17:18:53.140Z,0.70
2022-12-15T17:21:28.907Z,0.70
2022-12-15T17:24:03.947Z,0.80
2022-12-15T17:26:35.102Z,0.90
2022-12-15T17:29:09.353Z,0.90
2022-12-15T17:31:36.441Z,0.90
2022-12-15T17:34:28.226Z,1.00
2022-12-15T17:36:59.055Z,1.20
2022-12-15T17:39:27.458Z,1.20
2022-12-15T17:42:02.798Z,1.10
2022-12-15T17:44:36.830Z,1.00
2022-12-15T17:47:08.533Z,0.90
2022-12-15T17:49:37.773Z,0.60
2022-12-15T17:52:26.012Z,0.70
2022-12-15T17:54:53.584Z,0.70
2022-12-15T17:57:20.556Z,0.80
2022-12-15T17:59:47.663Z,0.90
2022-12-15T18:02:15.572Z,1.00
2022-12-15T18:04:43.164Z,1.20
2022-12-15T18:07:23.362Z,1.10
2022-12-15T18:09:52.003Z,1.10
2022-12-15T18:12:27.412Z,1.10
2022-12-15T18:14:55.923Z,1.00
2022-12-15T18:17:23.817Z,1.00
2022-12-15T18:19:50.755Z,0.90
2022-12-15T18:22:26.855Z,1.00
2022-12-15T18:24:54.566Z,1.00
2022-12-15T18:27:27.899Z,0.90
2022-12-15T18:29:56.467Z,0.90
2022-12-15T18:32:26.879Z,0.80
2022-12-15T18:34:54.789Z,0.80
2022-12-15T18:37:24.841Z,0.90
2022-12-15T18:39:52.272Z,0.80
2022-12-15T18:42:21.669Z,0.80
2022-12-15T18:44:52.208Z,0.70
2022-12-15T18:47:22.919Z,0.80
2022-12-15T18:49:50.156Z,0.80
2022-12-15T18:52:22.625Z,0.80
2022-12-15T18:54:52.303Z,0.70
2022-12-15T18:57:35.744Z,0.60
2022-12-15T19:00:27.845Z,0.60
2022-12-15T19:02:59.880Z,0.70
2022-12-15T19:05:28.865Z,0.70
2022-12-15T19:08:03.269Z,0.80
2022-12-15T19:10:34.251Z,0.80
2022-12-15T19:13:01.247Z,0.70
2022-12-15T19:15:28.826Z,0.80
2022-12-15T19:18:14.622Z,0.90
2022-12-15T19:21:01.281Z,0.90
2022-12-15T19:23:28.166Z,0.90
2022-12-15T19:25:55.080Z,0.80
2022-12-15T19:28:24.056Z,0.80
2022-12-15T19:30:54.671Z,0.80
2022-12-15T19:33:21.857Z,0.80
2022-12-15T19:35:51.399Z,0.80
2022-12-15T19:38:30.108Z,0.60
2022-12-15T19:40:59.687Z,0.50
2022-12-15T19:43:27.451Z,0.60
2022-12-15T19:45:54.824Z,0.70
2022-12-15T19:48:24.132Z,0.60
2022-12-15T19:50:52.324Z,0.60
2022-12-15T19:53:29.772Z,0.60
2022-12-15T19:56:01.472Z,0.50
2022-12-15T19:58:35.005Z,0.50
2022-12-15T20:01:10.771Z,0.50
2022-12-15T20:03:38.848Z,0.60
2022-12-15T20:06:31.736Z,0.60
2022-12-15T20:08:59.864Z,0.60
2022-12-15T20:11:32.605Z,0.70
2022-12-15T20:14:01.581Z,0.70
2022-12-15T20:16:28.643Z,0.70
2022-12-15T20:18:56.147Z,0.70
2022-12-15T20:21:31.242Z,0.70
2022-12-15T20:24:05.151Z,0.90
2022-12-15T20:26:32.077Z,0.80
2022-12-15T20:28:59.275Z,0.80
2022-12-15T20:31:26.794Z,0.90
2022-12-15T20:33:54.151Z,0.80
2022-12-15T20:36:31.091Z,0.90
2022-12-15T20:38:58.105Z,0.90
2022-12-15T20:41:28.745Z,0.90
2022-12-15T20:43:57.714Z,0.90
2022-12-15T20:46:34.753Z,1.00
2022-12-15T20:49:02.318Z,1.00
2022-12-15T20:51:32.707Z,0.90
2022-12-15T20:54:02.806Z,0.80
2022-12-15T20:56:30.158Z,0.90
2022-12-15T20:58:59.362Z,1.00
2022-12-15T21:01:32.798Z,1.00
2022-12-15T21:04:04.118Z,1.00
2022-12-15T21:06:31.140Z,1.00
2022-12-15T21:08:58.073Z,0.90
2022-12-15T21:11:28.496Z,0.90
2022-12-15T21:13:58.780Z,1.00
2022-12-15T21:16:30.783Z,0.90
2022-12-15T21:21:51.977Z,0.80
2022-12-15T21:24:25.784Z,0.80
2022-12-15T21:26:52.874Z,0.80
2022-12-15T21:29:27.965Z,0.80
2022-12-15T21:31:54.964Z,0.80
2022-12-15T21:34:22.531Z,0.80
2022-12-15T21:36:55.186Z,0.80
2022-12-15T21:39:29.631Z,0.80
2022-12-15T21:42:00.666Z,0.80
2022-12-15T21:44:27.588Z,0.70
2022-12-15T21:46:54.766Z,0.60
2022-12-15T21:49:22.059Z,0.50
2022-12-15T21:51:59.814Z,0.40
2022-12-15T21:54:32.331Z,0.50
2022-12-15T21:57:02.719Z,0.70
2022-12-15T21:59:32.387Z,0.70
2022-12-15T22:02:27.184Z,0.80
2022-12-15T22:04:55.023Z,1.00
2022-12-15T22:07:21.994Z,1.00
2022-12-15T22:09:48.891Z,1.00
2022-12-15T22:12:20.861Z,1.00
2022-12-15T22:14:47.994Z,1.00
2022-12-15T22:17:21.508Z,0.90
2022-12-15T22:19:48.454Z,0.90
2022-12-15T22:22:16.523Z,0.80
2022-12-15T22:24:43.827Z,0.80
2022-12-15T22:27:22.483Z,0.80
2022-12-15T22:29:50.331Z,0.70
2022-12-15T22:32:17.234Z,0.60
2022-12-15T22:34:44.140Z,0.60
2022-12-15T22:37:10.951Z,0.60
2022-12-15T22:39:37.690Z,0.60
2022-12-15T22:42:05.719Z,0.50
2022-12-15T22:44:37.227Z,0.50
2022-12-15T22:47:05.951Z,0.60
2022-12-15T22:49:38.081Z,0.70
2022-12-15T22:52:20.554Z,0.70
2022-12-15T22:54:48.062Z,0.70
2022-12-15T22:57:25.067Z,0.60
2022-12-15T23:00:03.114Z,0.70
2022-12-15T23:02:36.523Z,0.80
2022-12-15T23:05:05.605Z,0.60
2022-12-15T23:07:34.038Z,0.70
2022-12-15T23:10:19.510Z,0.70
2022-12-15T23:12:46.383Z,0.70
2022-12-15T23:15:31.913Z,0.70
2022-12-15T23:17:58.708Z,0.50
2022-12-15T23:20:25.558Z,0.40
2022-12-15T23:22:52.319Z,0.30
2022-12-15T23:25:21.563Z,0.30
2022-12-15T23:27:48.383Z,0.20
2022-12-15T23:30:15.908Z,0.20
2022-12-15T23:32:43.257Z,0.20
2022-12-15T23:35:10.230Z,0.20
2022-12-15T23:37:37.031Z,0.10
2022-12-15T23:40:05.436Z,0.10
2022-12-15T23:42:32.312Z,0.00
2022-12-15T23:44:59.181Z,-0.10
2022-12-15T23:47:26.041Z,-0.20
2022-12-15T23:49:53.066Z,-0.30
2022-12-15T23:52:20.576Z,-0.20
2022-12-15T23:54:47.407Z,-0.20
2022-12-15T23:57:14.209Z,-0.20
2022-12-15T23:59:40.968Z,-0.20
